Wetterdaten: Woche 04.01.16 - 10.01.16 (KW1)
Datum Zeit Temperatur Luftfeuchte Luftdruck Niederschlag Windrichtung Sonnenschein Solar Wind
04.01.2016 00:00 1,3 C 98 % 994,9 hPa 0,0 l/m N 0,00 h 0 W/m 0,0 km/h (0 Bft)
04.01.2016 01:00 1,3 C 98 % 994,0 hPa 0,2 l/m N 0,00 h 0 W/m 0,0 km/h (0 Bft)
04.01.2016 02:00 1,4 C 98 % 993,9 hPa 0,8 l/m N 0,00 h 0 W/m 0,0 km/h (0 Bft)
04.01.2016 03:00 0,9 C 98 % 993,7 hPa 0,4 l/m W 0,00 h 0 W/m 2,0 km/h (1 Bft)
04.01.2016 04:00 0,5 C 98 % 993,1 hPa 0,0 l/m W-SW 0,00 h 0 W/m 9,3 km/h (2 Bft)
04.01.2016 05:00 1,0 C 99 % 992,8 hPa 0,0 l/m SW 0,00 h 0 W/m 16,1 km/h (3 Bft)
04.01.2016 06:00 1,5 C 99 % 993,0 hPa 1,8 l/m W-SW 0,00 h 0 W/m 23,3 km/h (4 Bft)
04.01.2016 07:00 2,1 C 98 % 992,9 hPa 1,4 l/m W-SW 0,00 h 0 W/m 26,7 km/h (4 Bft)
04.01.2016 08:00 2,5 C 98 % 993,1 hPa 1,0 l/m W-SW 0,00 h 9 W/m 24,3 km/h (4 Bft)
04.01.2016 09:00 2,7 C 97 % 993,6 hPa 0,4 l/m W-SW 0,00 h 33 W/m 22,9 km/h (4 Bft)
04.01.2016 10:00 3,3 C 97 % 993,9 hPa 0,0 l/m W-SW 0,00 h 53 W/m 20,5 km/h (4 Bft)
04.01.2016 11:00 3,8 C 95 % 994,2 hPa 0,0 l/m W-SW 0,00 h 96 W/m 24,8 km/h (4 Bft)
04.01.2016 12:00 4,0 C 95 % 994,1 hPa 0,0 l/m W-SW 0,00 h 50 W/m 22,1 km/h (4 Bft)
04.01.2016 13:00 4,0 C 94 % 994,2 hPa 0,2 l/m W-SW 0,00 h 71 W/m 20,0 km/h (4 Bft)
04.01.2016 14:00 4,1 C 93 % 994,2 hPa 0,0 l/m W-SW 0,08 h 65 W/m 20,4 km/h (4 Bft)
04.01.2016 15:00 3,9 C 93 % 994,4 hPa 0,0 l/m W-SW 0,00 h 53 W/m 16,4 km/h (3 Bft)
04.01.2016 16:00 3,7 C 95 % 994,8 hPa 0,0 l/m S-SW 0,08 h 16 W/m 13,2 km/h (3 Bft)
04.01.2016 17:00 3,3 C 96 % 995,1 hPa 0,0 l/m S-SW 0,00 h 0 W/m 13,4 km/h (3 Bft)
04.01.2016 18:00 2,8 C 97 % 995,3 hPa 0,0 l/m SW 0,00 h 0 W/m 15,4 km/h (3 Bft)
04.01.2016 19:00 2,2 C 97 % 995,4 hPa 0,0 l/m SW 0,00 h 0 W/m 12,5 km/h (3 Bft)
04.01.2016 20:00 2,1 C 97 % 995,5 hPa 0,0 l/m SW 0,00 h 0 W/m 9,8 km/h (2 Bft)
04.01.2016 21:00 2,1 C 98 % 995,8 hPa 0,0 l/m SW 0,00 h 0 W/m 9,1 km/h (2 Bft)
04.01.2016 22:00 1,8 C 98 % 995,7 hPa 0,0 l/m SW 0,00 h 0 W/m 9,8 km/h (2 Bft)
04.01.2016 23:00 1,8 C 98 % 995,5 hPa 0,0 l/m SW 0,00 h 0 W/m 12,6 km/h (3 Bft)
05.01.2016 00:00 2,3 C 97 % 995,1 hPa 0,0 l/m SW 0,00 h 0 W/m 13,7 km/h (3 Bft)
05.01.2016 01:00 2,4 C 97 % 994,7 hPa 0,0 l/m W-SW 0,00 h 0 W/m 10,5 km/h (2 Bft)
05.01.2016 02:00 1,6 C 96 % 994,6 hPa 0,0 l/m N 0,00 h 0 W/m 0,8 km/h (0 Bft)
05.01.2016 03:00 1,3 C 96 % 994,6 hPa 0,0 l/m W-SW 0,00 h 0 W/m 0,9 km/h (0 Bft)
05.01.2016 04:00 1,3 C 97 % 994,5 hPa 0,0 l/m N 0,00 h 0 W/m 0,0 km/h (0 Bft)
05.01.2016 05:00 1,5 C 98 % 994,4 hPa 0,2 l/m W-SW 0,00 h 0 W/m 3,2 km/h (1 Bft)
05.01.2016 06:00 1,8 C 98 % 994,5 hPa 0,0 l/m SW 0,00 h 0 W/m 12,6 km/h (3 Bft)
05.01.2016 07:00 2,2 C 98 % 995,1 hPa 0,0 l/m W-SW 0,00 h 0 W/m 17,0 km/h (3 Bft)
05.01.2016 08:00 2,3 C 98 % 996,0 hPa 0,0 l/m SW 0,00 h 8 W/m 18,1 km/h (3 Bft)
05.01.2016 09:00 2,3 C 98 % 996,6 hPa 0,2 l/m SW 0,00 h 26 W/m 15,2 km/h (3 Bft)
05.01.2016 10:00 2,9 C 98 % 997,1 hPa 0,0 l/m SW 0,17 h 101 W/m 16,0 km/h (3 Bft)
05.01.2016 11:00 4,0 C 97 % 996,9 hPa 0,0 l/m SW 0,33 h 166 W/m 19,7 km/h (3 Bft)
05.01.2016 12:00 4,4 C 95 % 996,7 hPa 0,0 l/m SW 0,00 h 82 W/m 15,0 km/h (3 Bft)
05.01.2016 13:00 4,2 C 96 % 996,6 hPa 0,0 l/m SW 0,00 h 55 W/m 15,2 km/h (3 Bft)
05.01.2016 14:00 4,6 C 92 % 996,6 hPa 0,0 l/m W-SW 0,00 h 69 W/m 20,2 km/h (4 Bft)
05.01.2016 15:00 4,9 C 90 % 996,7 hPa 0,0 l/m W-SW 0,08 h 61 W/m 16,1 km/h (3 Bft)
05.01.2016 16:00 4,6 C 91 % 997,0 hPa 0,0 l/m SW 0,08 h 14 W/m 7,5 km/h (2 Bft)
05.01.2016 17:00 3,7 C 94 % 997,4 hPa 0,0 l/m SW 0,00 h 0 W/m 8,3 km/h (2 Bft)
05.01.2016 18:00 3,2 C 96 % 997,4 hPa 0,0 l/m SW 0,00 h 0 W/m 4,3 km/h (1 Bft)
05.01.2016 19:00 2,2 C 95 % 997,6 hPa 0,0 l/m SW 0,00 h 0 W/m 2,5 km/h (1 Bft)
05.01.2016 20:00 2,8 C 95 % 997,9 hPa 0,0 l/m W-SW 0,00 h 0 W/m 17,8 km/h (3 Bft)
05.01.2016 21:00 3,2 C 93 % 998,3 hPa 0,0 l/m W-SW 0,00 h 0 W/m 8,9 km/h (2 Bft)
05.01.2016 22:00 2,7 C 94 % 998,6 hPa 0,0 l/m SW 0,00 h 0 W/m 11,8 km/h (2 Bft)
05.01.2016 23:00 3,0 C 94 % 998,7 hPa 0,0 l/m SW 0,00 h 0 W/m 4,4 km/h (1 Bft)
06.01.2016 00:00 2,8 C 95 % 998,9 hPa 0,4 l/m SW 0,00 h 0 W/m 5,5 km/h (1 Bft)
06.01.2016 01:00 2,5 C 95 % 998,9 hPa 0,0 l/m W 0,00 h 0 W/m 1,9 km/h (1 Bft)
06.01.2016 02:00 1,8 C 96 % 999,2 hPa 0,0 l/m W 0,00 h 0 W/m 3,4 km/h (1 Bft)
06.01.2016 03:00 2,3 C 97 % 999,1 hPa 0,4 l/m W 0,00 h 0 W/m 4,3 km/h (1 Bft)
06.01.2016 04:00 2,0 C 97 % 999,2 hPa 0,0 l/m W 0,00 h 0 W/m 1,5 km/h (1 Bft)
06.01.2016 05:00 1,7 C 97 % 999,4 hPa 0,0 l/m W-SW 0,00 h 0 W/m 8,2 km/h (2 Bft)
06.01.2016 06:00 1,9 C 97 % 999,5 hPa 0,0 l/m S-SW 0,00 h 0 W/m 7,8 km/h (2 Bft)
06.01.2016 07:00 1,6 C 97 % 999,6 hPa 0,0 l/m N 0,00 h 0 W/m 4,4 km/h (1 Bft)
06.01.2016 08:00 1,3 C 98 % 999,7 hPa 0,2 l/m N 0,00 h 17 W/m 1,1 km/h (0 Bft)
06.01.2016 09:00 1,7 C 98 % 999,9 hPa 0,0 l/m S-SW 0,00 h 71 W/m 4,0 km/h (1 Bft)
06.01.2016 10:00 2,8 C 97 % 1000,1 hPa 0,0 l/m SW 0,00 h 102 W/m 11,8 km/h (2 Bft)
06.01.2016 11:00 4,0 C 94 % 999,9 hPa 0,0 l/m S-SW 0,25 h 161 W/m 11,8 km/h (2 Bft)
06.01.2016 12:00 4,1 C 92 % 999,6 hPa 0,6 l/m W-SW 0,00 h 35 W/m 16,4 km/h (3 Bft)
06.01.2016 13:00 3,3 C 95 % 999,3 hPa 1,0 l/m SW 0,00 h 36 W/m 12,8 km/h (3 Bft)
06.01.2016 14:00 3,2 C 96 % 999,6 hPa 0,6 l/m W-SW 0,00 h 35 W/m 13,8 km/h (3 Bft)
06.01.2016 15:00 3,2 C 97 % 1000,1 hPa 0,4 l/m SW 0,00 h 11 W/m 10,3 km/h (2 Bft)
06.01.2016 16:00 2,8 C 97 % 1000,4 hPa 0,4 l/m W-SW 0,00 h 7 W/m 10,6 km/h (2 Bft)
06.01.2016 17:00 2,5 C 97 % 1000,8 hPa 0,8 l/m W-SW 0,00 h 0 W/m 2,4 km/h (1 Bft)
06.01.2016 18:00 2,4 C 97 % 1001,1 hPa 0,8 l/m W-SW 0,00 h 0 W/m 1,7 km/h (1 Bft)
06.01.2016 19:00 2,4 C 98 % 1001,4 hPa 0,0 l/m N 0,00 h 0 W/m 0,0 km/h (0 Bft)
06.01.2016 20:00 2,4 C 98 % 1001,7 hPa 0,2 l/m W-SW 0,00 h 0 W/m 0,4 km/h (0 Bft)
06.01.2016 21:00 2,4 C 98 % 1001,6 hPa 0,0 l/m W-SW 0,00 h 0 W/m 1,3 km/h (1 Bft)
06.01.2016 22:00 2,3 C 98 % 1001,5 hPa 0,2 l/m N 0,00 h 0 W/m 0,9 km/h (0 Bft)
06.01.2016 23:00 2,3 C 99 % 1001,5 hPa 0,0 l/m SW 0,00 h 0 W/m 8,0 km/h (2 Bft)
07.01.2016 00:00 2,2 C 99 % 1001,9 hPa 0,0 l/m SW 0,00 h 0 W/m 11,0 km/h (2 Bft)
07.01.2016 01:00 2,2 C 99 % 1002,0 hPa 0,0 l/m SW 0,00 h 0 W/m 10,1 km/h (2 Bft)
07.01.2016 02:00 2,4 C 99 % 1002,0 hPa 0,0 l/m W-SW 0,00 h 0 W/m 4,9 km/h (1 Bft)
07.01.2016 03:00 2,4 C 99 % 1002,2 hPa 0,0 l/m W-SW 0,00 h 0 W/m 6,0 km/h (2 Bft)
07.01.2016 04:00 2,4 C 99 % 1002,1 hPa 0,0 l/m W-SW 0,00 h 0 W/m 6,4 km/h (2 Bft)
07.01.2016 05:00 2,4 C 99 % 1001,6 hPa 0,0 l/m W-SW 0,00 h 0 W/m 4,4 km/h (1 Bft)
07.01.2016 06:00 2,4 C 99 % 1001,3 hPa 0,0 l/m N 0,00 h 0 W/m 1,5 km/h (1 Bft)
07.01.2016 07:00 2,3 C 99 % 1000,7 hPa 0,0 l/m N 0,00 h 0 W/m 0,8 km/h (0 Bft)
07.01.2016 08:00 2,1 C 99 % 1000,1 hPa 0,0 l/m N 0,00 h 18 W/m 0,0 km/h (0 Bft)
07.01.2016 09:00 1,2 C 99 % 999,4 hPa 0,0 l/m N 0,00 h 48 W/m 0,0 km/h (0 Bft)
07.01.2016 10:00 1,3 C 99 % 999,0 hPa 0,0 l/m SO 0,75 h 161 W/m 1,7 km/h (1 Bft)
07.01.2016 11:00 3,4 C 98 % 997,2 hPa 0,0 l/m O-SO 0,33 h 163 W/m 7,5 km/h (2 Bft)
07.01.2016 12:00 4,7 C 91 % 995,4 hPa 0,0 l/m O-SO 0,00 h 75 W/m 2,3 km/h (1 Bft)
07.01.2016 13:00 4,4 C 91 % 995,0 hPa 0,0 l/m O-SO 0,00 h 23 W/m 2,8 km/h (1 Bft)
07.01.2016 14:00 3,6 C 92 % 995,2 hPa 1,2 l/m W-SW 0,00 h 12 W/m 7,6 km/h (2 Bft)
07.01.2016 15:00 1,7 C 94 % 995,6 hPa 0,4 l/m SW 0,00 h 11 W/m 6,4 km/h (2 Bft)
07.01.2016 16:00 0,8 C 96 % 996,6 hPa 0,0 l/m SW 0,00 h 9 W/m 11,4 km/h (2 Bft)
07.01.2016 17:00 1,2 C 98 % 997,5 hPa 1,0 l/m W-SW 0,00 h 0 W/m 22,0 km/h (4 Bft)
07.01.2016 18:00 1,9 C 98 % 999,0 hPa 1,0 l/m W-SW 0,00 h 0 W/m 19,3 km/h (3 Bft)
07.01.2016 19:00 2,7 C 99 % 999,8 hPa 1,0 l/m SW 0,00 h 0 W/m 21,2 km/h (4 Bft)
07.01.2016 20:00 4,1 C 99 % 1000,4 hPa 0,2 l/m W-SW 0,00 h 0 W/m 23,1 km/h (4 Bft)
07.01.2016 21:00 4,1 C 98 % 1001,3 hPa 0,0 l/m SW 0,00 h 0 W/m 15,8 km/h (3 Bft)
07.01.2016 22:00 3,4 C 98 % 1002,3 hPa 0,0 l/m SW 0,00 h 0 W/m 10,6 km/h (2 Bft)
07.01.2016 23:00 3,3 C 97 % 1003,6 hPa 0,0 l/m W-SW 0,00 h 0 W/m 17,3 km/h (3 Bft)
08.01.2016 00:00 3,0 C 94 % 1004,1 hPa 0,0 l/m W-SW 0,00 h 0 W/m 15,6 km/h (3 Bft)
08.01.2016 01:00 2,9 C 94 % 1004,3 hPa 0,0 l/m SW 0,00 h 0 W/m 13,0 km/h (3 Bft)
08.01.2016 02:00 2,9 C 95 % 1005,5 hPa 0,0 l/m SW 0,00 h 0 W/m 12,5 km/h (3 Bft)
08.01.2016 03:00 2,4 C 96 % 1005,7 hPa 0,0 l/m SW 0,00 h 0 W/m 13,7 km/h (3 Bft)
08.01.2016 04:00 2,3 C 97 % 1006,5 hPa 0,0 l/m W-SW 0,00 h 0 W/m 14,0 km/h (3 Bft)
08.01.2016 05:00 2,3 C 97 % 1006,9 hPa 0,0 l/m SW 0,00 h 0 W/m 13,7 km/h (3 Bft)
08.01.2016 06:00 2,6 C 96 % 1007,1 hPa 0,0 l/m W-SW 0,00 h 0 W/m 17,3 km/h (3 Bft)
08.01.2016 07:00 2,4 C 95 % 1007,3 hPa 0,0 l/m SW 0,00 h 0 W/m 11,1 km/h (2 Bft)
08.01.2016 08:00 2,0 C 95 % 1007,6 hPa 0,0 l/m SW 0,00 h 11 W/m 12,4 km/h (3 Bft)
08.01.2016 09:00 1,8 C 95 % 1007,8 hPa 0,0 l/m SW 0,00 h 30 W/m 2,4 km/h (1 Bft)
08.01.2016 10:00 2,4 C 96 % 1007,9 hPa 0,0 l/m SW 0,83 h 187 W/m 1,7 km/h (1 Bft)
08.01.2016 11:00 4,1 C 93 % 1007,7 hPa 0,0 l/m N 0,00 h 120 W/m 0,5 km/h (0 Bft)
08.01.2016 12:00 5,1 C 89 % 1006,7 hPa 0,0 l/m N 0,00 h 109 W/m 0,0 km/h (0 Bft)
08.01.2016 13:00 5,6 C 88 % 1006,0 hPa 0,0 l/m N 0,00 h 39 W/m 0,0 km/h (0 Bft)
08.01.2016 14:00 5,2 C 92 % 1005,4 hPa 0,4 l/m SW 0,00 h 26 W/m 0,4 km/h (0 Bft)
08.01.2016 15:00 5,0 C 93 % 1005,2 hPa 0,4 l/m SW 0,00 h 16 W/m 2,4 km/h (1 Bft)
08.01.2016 16:00 4,6 C 94 % 1005,1 hPa 0,4 l/m N 0,00 h 7 W/m 0,0 km/h (0 Bft)
08.01.2016 17:00 4,2 C 95 % 1005,0 hPa 0,8 l/m N 0,00 h 0 W/m 0,0 km/h (0 Bft)
08.01.2016 18:00 3,8 C 96 % 1004,8 hPa 0,4 l/m N 0,00 h 0 W/m 0,0 km/h (0 Bft)
08.01.2016 19:00 3,6 C 97 % 1004,2 hPa 0,4 l/m N 0,00 h 0 W/m 0,0 km/h (0 Bft)
08.01.2016 20:00 3,4 C 97 % 1003,7 hPa 0,4 l/m N 0,00 h 0 W/m 0,0 km/h (0 Bft)
08.01.2016 21:00 3,2 C 97 % 1003,5 hPa 0,4 l/m N 0,00 h 0 W/m 0,0 km/h (0 Bft)
08.01.2016 22:00 3,2 C 98 % 1003,6 hPa 1,2 l/m N 0,00 h 0 W/m 0,0 km/h (0 Bft)
08.01.2016 23:00 3,2 C 98 % 1003,7 hPa 1,2 l/m N 0,00 h 0 W/m 0,0 km/h (0 Bft)
09.01.2016 00:00 3,4 C 99 % 1003,4 hPa 0,6 l/m SW 0,00 h 0 W/m 5,6 km/h (1 Bft)
09.01.2016 01:00 3,6 C 99 % 1003,1 hPa 0,4 l/m SW 0,00 h 0 W/m 7,3 km/h (2 Bft)
09.01.2016 02:00 3,8 C 99 % 1003,1 hPa 0,0 l/m S-SW 0,00 h 0 W/m 3,6 km/h (1 Bft)
09.01.2016 03:00 3,9 C 99 % 1003,4 hPa 0,8 l/m S-SW 0,00 h 0 W/m 0,5 km/h (0 Bft)
09.01.2016 04:00 4,3 C 99 % 1003,4 hPa 0,4 l/m S-SW 0,00 h 0 W/m 2,9 km/h (1 Bft)
09.01.2016 05:00 4,1 C 99 % 1003,4 hPa 1,2 l/m N 0,00 h 0 W/m 0,8 km/h (0 Bft)
09.01.2016 06:00 3,8 C 99 % 1003,4 hPa 0,4 l/m N 0,00 h 0 W/m 0,0 km/h (0 Bft)
09.01.2016 07:00 3,9 C 99 % 1003,3 hPa 1,4 l/m S-SW 0,00 h 0 W/m 3,9 km/h (1 Bft)
09.01.2016 08:00 4,9 C 100 % 1003,2 hPa 0,2 l/m SW 0,00 h 8 W/m 15,2 km/h (3 Bft)
09.01.2016 09:00 5,4 C 100 % 1003,6 hPa 0,0 l/m SW 0,00 h 34 W/m 9,3 km/h (2 Bft)
09.01.2016 10:00 5,7 C 100 % 1003,4 hPa 0,0 l/m S-SW 0,00 h 42 W/m 12,5 km/h (3 Bft)
09.01.2016 11:00 5,7 C 100 % 1003,3 hPa 0,0 l/m S-SW 0,00 h 33 W/m 2,7 km/h (1 Bft)
09.01.2016 12:00 6,2 C 100 % 1003,1 hPa 0,0 l/m S-SW 0,00 h 45 W/m 4,9 km/h (1 Bft)
09.01.2016 13:00 6,4 C 100 % 1002,5 hPa 0,0 l/m S-SW 0,00 h 44 W/m 10,5 km/h (2 Bft)
09.01.2016 14:00 6,4 C 100 % 1002,5 hPa 0,0 l/m SW 0,00 h 33 W/m 11,8 km/h (2 Bft)
09.01.2016 15:00 6,4 C 100 % 1002,7 hPa 0,0 l/m SW 0,00 h 21 W/m 8,7 km/h (2 Bft)
09.01.2016 16:00 6,2 C 100 % 1002,6 hPa 0,0 l/m SW 0,00 h 7 W/m 7,1 km/h (2 Bft)
09.01.2016 17:00 5,8 C 99 % 1002,4 hPa 0,0 l/m N 0,00 h 0 W/m 1,6 km/h (1 Bft)
09.01.2016 18:00 5,6 C 99 % 1002,4 hPa 0,0 l/m N 0,00 h 0 W/m 0,0 km/h (0 Bft)
09.01.2016 19:00 5,2 C 99 % 1002,1 hPa 0,0 l/m SW 0,00 h 0 W/m 1,1 km/h (0 Bft)
09.01.2016 20:00 5,0 C 99 % 1001,9 hPa 0,0 l/m SW 0,00 h 0 W/m 2,8 km/h (1 Bft)
09.01.2016 21:00 4,4 C 99 % 1001,5 hPa 0,0 l/m N 0,00 h 0 W/m 0,0 km/h (0 Bft)
09.01.2016 22:00 3,5 C 99 % 1001,3 hPa 0,0 l/m N 0,00 h 0 W/m 0,0 km/h (0 Bft)
09.01.2016 23:00 2,7 C 99 % 1001,3 hPa 0,0 l/m N 0,00 h 0 W/m 0,0 km/h (0 Bft)
10.01.2016 00:00 1,6 C 98 % 1001,0 hPa 0,0 l/m N 0,00 h 0 W/m 0,0 km/h (0 Bft)
10.01.2016 01:00 0,8 C 99 % 1000,4 hPa 0,0 l/m N 0,00 h 0 W/m 0,0 km/h (0 Bft)
10.01.2016 02:00 0,5 C 99 % 1000,3 hPa 0,0 l/m N 0,00 h 0 W/m 0,3 km/h (0 Bft)
10.01.2016 03:00 0,5 C 99 % 999,7 hPa 0,0 l/m N 0,00 h 0 W/m 0,0 km/h (0 Bft)
10.01.2016 04:00 0,3 C 99 % 999,4 hPa 0,0 l/m SW 0,00 h 0 W/m 4,7 km/h (1 Bft)
10.01.2016 05:00 2,1 C 100 % 998,9 hPa 0,0 l/m SW 0,00 h 0 W/m 17,0 km/h (3 Bft)
10.01.2016 06:00 2,2 C 100 % 999,2 hPa 0,2 l/m SW 0,00 h 0 W/m 12,4 km/h (3 Bft)
10.01.2016 07:00 3,9 C 100 % 998,9 hPa 0,0 l/m SW 0,00 h 0 W/m 15,0 km/h (3 Bft)
10.01.2016 08:00 3,7 C 100 % 999,4 hPa 0,0 l/m W-SW 0,00 h 6 W/m 10,1 km/h (2 Bft)
10.01.2016 09:00 3,4 C 99 % 1000,3 hPa 0,2 l/m SW 0,00 h 16 W/m 8,3 km/h (2 Bft)
10.01.2016 10:00 3,6 C 100 % 1000,8 hPa 0,4 l/m SW 0,00 h 14 W/m 19,2 km/h (3 Bft)
10.01.2016 11:00 4,0 C 100 % 1000,6 hPa 0,4 l/m SW 0,00 h 29 W/m 20,6 km/h (4 Bft)
10.01.2016 12:00 4,4 C 100 % 999,9 hPa 0,2 l/m SW 0,00 h 38 W/m 21,7 km/h (4 Bft)
10.01.2016 13:00 4,5 C 100 % 999,2 hPa 1,0 l/m SW 0,00 h 25 W/m 17,4 km/h (3 Bft)
10.01.2016 14:00 4,1 C 99 % 998,7 hPa 2,0 l/m SW 0,00 h 17 W/m 15,3 km/h (3 Bft)
10.01.2016 15:00 3,9 C 99 % 998,4 hPa 0,6 l/m SW 0,00 h 23 W/m 14,5 km/h (3 Bft)
10.01.2016 16:00 3,7 C 99 % 998,0 hPa 1,6 l/m SW 0,00 h 6 W/m 11,5 km/h (2 Bft)
10.01.2016 17:00 3,5 C 99 % 997,5 hPa 1,6 l/m SW 0,00 h 0 W/m 1,1 km/h (0 Bft)
10.01.2016 18:00 3,4 C 99 % 997,9 hPa 1,2 l/m SW 0,00 h 0 W/m 9,9 km/h (2 Bft)
10.01.2016 19:00 3,6 C 100 % 997,5 hPa 0,0 l/m S-SW 0,00 h 0 W/m 11,7 km/h (2 Bft)
10.01.2016 20:00 3,8 C 99 % 997,7 hPa 0,2 l/m SW 0,00 h 0 W/m 11,0 km/h (2 Bft)
10.01.2016 21:00 4,1 C 100 % 997,9 hPa 0,0 l/m SW 0,00 h 0 W/m 12,0 km/h (2 Bft)
10.01.2016 22:00 4,6 C 100 % 998,4 hPa 0,4 l/m SW 0,00 h 0 W/m 14,4 km/h (3 Bft)
10.01.2016 23:00 4,5 C 99 % 998,5 hPa 0,4 l/m SW 0,00 h 0 W/m 11,4 km/h (2 Bft)
Min-Datum _ 10.01.16 08.01.16 04.01.16 - - - - 04.01.16
_ Min-Zeit 04:30 13:05 05:15 - - - - 00:00
Minimum _ 0,1 C 87 % 992,7 hPa - - - - 0,0 km/h (0 Bft)
Max-Datum _ 09.01.16 07.01.16 08.01.16 10.01.16 - 04.01.16 08.01.16 04.01.16
_ Max-Zeit 13:25 09:50 09:25 14:15 - 14:45 10:35 07:10
Maximum _ 6,4 C 100 % 1007,9 hPa 2,0 l/m - 0,08 h 299 W/m 33,8 km/h
W-SW (5 Bft)
Durchschnitt _ 3,1 C 97 % 999,7 hPa #39,2 l/m SW #3:00 h 48 W/m 8,7 km/h (2 Bft)